sensor_id;sensor_type;location;lat;lon;timestamp;P1;durP1;ratioP1;P2;durP2;ratioP2
24619;SDS011;12763;55.802;37.404;2023-01-28T00:00:47;3.67;;;2.30;;
24619;SDS011;12763;55.802;37.404;2023-01-28T00:03:13;4.05;;;2.33;;
24619;SDS011;12763;55.802;37.404;2023-01-28T00:05:40;3.75;;;2.28;;
24619;SDS011;12763;55.802;37.404;2023-01-28T00:08:06;5.20;;;2.63;;
24619;SDS011;12763;55.802;37.404;2023-01-28T00:10:36;5.10;;;2.35;;
24619;SDS011;12763;55.802;37.404;2023-01-28T00:13:04;4.88;;;2.58;;
24619;SDS011;12763;55.802;37.404;2023-01-28T00:15:34;3.90;;;2.58;;
24619;SDS011;12763;55.802;37.404;2023-01-28T00:18:00;4.43;;;2.45;;
24619;SDS011;12763;55.802;37.404;2023-01-28T00:20:25;4.97;;;2.55;;
24619;SDS011;12763;55.802;37.404;2023-01-28T00:22:51;5.65;;;2.15;;
24619;SDS011;12763;55.802;37.404;2023-01-28T00:25:17;7.22;;;2.83;;
24619;SDS011;12763;55.802;37.404;2023-01-28T00:27:43;4.85;;;2.80;;
24619;SDS011;12763;55.802;37.404;2023-01-28T00:30:09;4.43;;;2.35;;
24619;SDS011;12763;55.802;37.404;2023-01-28T00:32:36;5.97;;;2.42;;
24619;SDS011;12763;55.802;37.404;2023-01-28T00:35:01;7.45;;;3.78;;
24619;SDS011;12763;55.802;37.404;2023-01-28T00:37:29;5.38;;;2.88;;
24619;SDS011;12763;55.802;37.404;2023-01-28T00:39:57;6.32;;;3.22;;
24619;SDS011;12763;55.802;37.404;2023-01-28T00:42:23;6.70;;;2.97;;
24619;SDS011;12763;55.802;37.404;2023-01-28T00:44:49;6.97;;;3.50;;
24619;SDS011;12763;55.802;37.404;2023-01-28T00:47:15;5.85;;;3.33;;
24619;SDS011;12763;55.802;37.404;2023-01-28T00:49:40;7.07;;;3.78;;
24619;SDS011;12763;55.802;37.404;2023-01-28T00:52:07;5.78;;;3.35;;
24619;SDS011;12763;55.802;37.404;2023-01-28T00:54:36;7.38;;;2.80;;
24619;SDS011;12763;55.802;37.404;2023-01-28T00:57:02;5.80;;;2.97;;
24619;SDS011;12763;55.802;37.404;2023-01-28T00:59:28;5.85;;;3.22;;
24619;SDS011;12763;55.802;37.404;2023-01-28T01:01:53;5.35;;;2.97;;
24619;SDS011;12763;55.802;37.404;2023-01-28T01:04:39;5.20;;;3.20;;
24619;SDS011;12763;55.802;37.404;2023-01-28T01:07:05;7.53;;;3.15;;
24619;SDS011;12763;55.802;37.404;2023-01-28T01:09:31;4.50;;;2.90;;
24619;SDS011;12763;55.802;37.404;2023-01-28T01:11:56;6.55;;;3.53;;
24619;SDS011;12763;55.802;37.404;2023-01-28T01:14:22;5.65;;;3.38;;
24619;SDS011;12763;55.802;37.404;2023-01-28T01:16:48;4.85;;;3.13;;
24619;SDS011;12763;55.802;37.404;2023-01-28T01:19:14;7.95;;;3.88;;
24619;SDS011;12763;55.802;37.404;2023-01-28T01:21:41;7.50;;;2.95;;
24619;SDS011;12763;55.802;37.404;2023-01-28T01:24:11;5.93;;;3.40;;
24619;SDS011;12763;55.802;37.404;2023-01-28T01:26:37;5.85;;;3.53;;
24619;SDS011;12763;55.802;37.404;2023-01-28T01:29:03;8.45;;;3.70;;
24619;SDS011;12763;55.802;37.404;2023-01-28T01:31:28;6.07;;;3.45;;
24619;SDS011;12763;55.802;37.404;2023-01-28T01:33:54;6.13;;;3.55;;
24619;SDS011;12763;55.802;37.404;2023-01-28T01:36:20;5.75;;;3.60;;
24619;SDS011;12763;55.802;37.404;2023-01-28T01:38:46;7.13;;;3.78;;
24619;SDS011;12763;55.802;37.404;2023-01-28T01:41:19;5.90;;;3.35;;
24619;SDS011;12763;55.802;37.404;2023-01-28T01:43:57;5.90;;;3.42;;
24619;SDS011;12763;55.802;37.404;2023-01-28T01:49:19;6.20;;;3.33;;
24619;SDS011;12763;55.802;37.404;2023-01-28T01:51:49;5.88;;;3.53;;
24619;SDS011;12763;55.802;37.404;2023-01-28T01:54:19;5.75;;;3.38;;
24619;SDS011;12763;55.802;37.404;2023-01-28T01:56:55;8.65;;;3.72;;
24619;SDS011;12763;55.802;37.404;2023-01-28T01:59:24;9.20;;;3.80;;
24619;SDS011;12763;55.802;37.404;2023-01-28T02:01:54;8.30;;;3.75;;
24619;SDS011;12763;55.802;37.404;2023-01-28T02:04:30;6.90;;;3.60;;
24619;SDS011;12763;55.802;37.404;2023-01-28T02:06:59;6.28;;;3.40;;
24619;SDS011;12763;55.802;37.404;2023-01-28T02:09:29;7.18;;;3.03;;
24619;SDS011;12763;55.802;37.404;2023-01-28T02:12:00;9.05;;;3.92;;
24619;SDS011;12763;55.802;37.404;2023-01-28T02:14:31;7.65;;;3.67;;
24619;SDS011;12763;55.802;37.404;2023-01-28T02:17:20;5.88;;;3.45;;
24619;SDS011;12763;55.802;37.404;2023-01-28T02:30:34;7.10;;;4.22;;
24619;SDS011;12763;55.802;37.404;2023-01-28T02:36:16;8.77;;;3.78;;
24619;SDS011;12763;55.802;37.404;2023-01-28T02:38:48;9.30;;;4.20;;
24619;SDS011;12763;55.802;37.404;2023-01-28T02:42:01;6.30;;;3.63;;
24619;SDS011;12763;55.802;37.404;2023-01-28T02:44:25;7.18;;;4.28;;
24619;SDS011;12763;55.802;37.404;2023-01-28T02:46:52;6.53;;;3.85;;
24619;SDS011;12763;55.802;37.404;2023-01-28T02:49:53;8.77;;;4.43;;
24619;SDS011;12763;55.802;37.404;2023-01-28T02:55:38;12.27;;;4.75;;
24619;SDS011;12763;55.802;37.404;2023-01-28T03:00:49;8.90;;;3.80;;
24619;SDS011;12763;55.802;37.404;2023-01-28T03:03:25;10.25;;;4.88;;
24619;SDS011;12763;55.802;37.404;2023-01-28T03:06:11;10.88;;;4.88;;
24619;SDS011;12763;55.802;37.404;2023-01-28T03:08:45;8.37;;;5.17;;
24619;SDS011;12763;55.802;37.404;2023-01-28T03:11:34;9.75;;;4.50;;
24619;SDS011;12763;55.802;37.404;2023-01-28T03:14:22;12.65;;;5.63;;
24619;SDS011;12763;55.802;37.404;2023-01-28T03:17:11;7.57;;;4.28;;
24619;SDS011;12763;55.802;37.404;2023-01-28T03:20:04;7.63;;;4.20;;
24619;SDS011;12763;55.802;37.404;2023-01-28T03:25:35;10.13;;;5.05;;
24619;SDS011;12763;55.802;37.404;2023-01-28T03:28:24;10.57;;;5.25;;
24619;SDS011;12763;55.802;37.404;2023-01-28T03:31:12;10.90;;;5.22;;
24619;SDS011;12763;55.802;37.404;2023-01-28T03:33:59;8.70;;;4.47;;
24619;SDS011;12763;55.802;37.404;2023-01-28T03:36:47;7.75;;;4.10;;
24619;SDS011;12763;55.802;37.404;2023-01-28T03:39:49;8.27;;;4.18;;
24619;SDS011;12763;55.802;37.404;2023-01-28T03:42:15;7.25;;;3.90;;
24619;SDS011;12763;55.802;37.404;2023-01-28T03:45:11;6.88;;;3.83;;
24619;SDS011;12763;55.802;37.404;2023-01-28T03:47:39;5.45;;;3.03;;
24619;SDS011;12763;55.802;37.404;2023-01-28T03:50:06;7.53;;;3.47;;
24619;SDS011;12763;55.802;37.404;2023-01-28T03:55:24;7.47;;;3.15;;
24619;SDS011;12763;55.802;37.404;2023-01-28T03:57:50;6.50;;;3.42;;
24619;SDS011;12763;55.802;37.404;2023-01-28T04:00:16;7.70;;;3.78;;
24619;SDS011;12763;55.802;37.404;2023-01-28T04:02:44;5.65;;;3.28;;
24619;SDS011;12763;55.802;37.404;2023-01-28T04:05:15;7.80;;;3.58;;
24619;SDS011;12763;55.802;37.404;2023-01-28T04:07:47;5.53;;;3.38;;
24619;SDS011;12763;55.802;37.404;2023-01-28T04:10:31;7.28;;;4.03;;
24619;SDS011;12763;55.802;37.404;2023-01-28T04:13:08;7.68;;;3.35;;
24619;SDS011;12763;55.802;37.404;2023-01-28T04:15:34;6.65;;;3.30;;
24619;SDS011;12763;55.802;37.404;2023-01-28T04:18:01;6.85;;;3.40;;
24619;SDS011;12763;55.802;37.404;2023-01-28T04:20:28;5.82;;;3.25;;
24619;SDS011;12763;55.802;37.404;2023-01-28T04:22:57;7.63;;;3.40;;
24619;SDS011;12763;55.802;37.404;2023-01-28T04:25:23;5.68;;;3.40;;
24619;SDS011;12763;55.802;37.404;2023-01-28T04:27:49;5.10;;;2.58;;
24619;SDS011;12763;55.802;37.404;2023-01-28T04:30:19;4.43;;;2.97;;
24619;SDS011;12763;55.802;37.404;2023-01-28T04:33:07;5.70;;;2.63;;
24619;SDS011;12763;55.802;37.404;2023-01-28T04:35:44;4.53;;;2.55;;
24619;SDS011;12763;55.802;37.404;2023-01-28T04:38:22;4.72;;;2.60;;
24619;SDS011;12763;55.802;37.404;2023-01-28T04:41:14;5.95;;;2.92;;
24619;SDS011;12763;55.802;37.404;2023-01-28T04:43:39;5.47;;;2.95;;
24619;SDS011;12763;55.802;37.404;2023-01-28T04:46:26;3.58;;;2.33;;
24619;SDS011;12763;55.802;37.404;2023-01-28T04:49:21;3.83;;;2.70;;
24619;SDS011;12763;55.802;37.404;2023-01-28T04:52:07;4.20;;;2.60;;
24619;SDS011;12763;55.802;37.404;2023-01-28T04:54:58;5.63;;;2.78;;
24619;SDS011;12763;55.802;37.404;2023-01-28T04:57:25;6.05;;;3.35;;
24619;SDS011;12763;55.802;37.404;2023-01-28T04:59:51;4.78;;;2.95;;
24619;SDS011;12763;55.802;37.404;2023-01-28T05:02:17;4.90;;;2.60;;
24619;SDS011;12763;55.802;37.404;2023-01-28T05:04:45;6.72;;;3.20;;
24619;SDS011;12763;55.802;37.404;2023-01-28T05:07:24;5.25;;;3.15;;
24619;SDS011;12763;55.802;37.404;2023-01-28T05:09:50;5.35;;;2.70;;
24619;SDS011;12763;55.802;37.404;2023-01-28T05:12:16;5.40;;;3.03;;
24619;SDS011;12763;55.802;37.404;2023-01-28T05:14:43;4.57;;;2.65;;
24619;SDS011;12763;55.802;37.404;2023-01-28T05:17:14;4.65;;;2.72;;
24619;SDS011;12763;55.802;37.404;2023-01-28T05:19:39;4.28;;;2.53;;
24619;SDS011;12763;55.802;37.404;2023-01-28T05:22:13;6.95;;;2.70;;
24619;SDS011;12763;55.802;37.404;2023-01-28T05:24:46;4.68;;;2.92;;
24619;SDS011;12763;55.802;37.404;2023-01-28T05:27:12;5.35;;;2.53;;
24619;SDS011;12763;55.802;37.404;2023-01-28T05:29:38;6.55;;;3.13;;
24619;SDS011;12763;55.802;37.404;2023-01-28T05:32:04;3.92;;;2.63;;
24619;SDS011;12763;55.802;37.404;2023-01-28T05:34:30;5.55;;;3.10;;
24619;SDS011;12763;55.802;37.404;2023-01-28T05:36:59;6.00;;;3.38;;
24619;SDS011;12763;55.802;37.404;2023-01-28T05:39:35;6.72;;;3.85;;
24619;SDS011;12763;55.802;37.404;2023-01-28T05:42:00;8.05;;;4.00;;
24619;SDS011;12763;55.802;37.404;2023-01-28T05:44:27;9.93;;;4.38;;
24619;SDS011;12763;55.802;37.404;2023-01-28T05:47:12;7.57;;;3.80;;
24619;SDS011;12763;55.802;37.404;2023-01-28T05:49:49;8.30;;;4.50;;
24619;SDS011;12763;55.802;37.404;2023-01-28T05:52:42;8.20;;;3.63;;
24619;SDS011;12763;55.802;37.404;2023-01-28T05:57:42;6.82;;;3.92;;
24619;SDS011;12763;55.802;37.404;2023-01-28T06:00:10;6.85;;;3.85;;
24619;SDS011;12763;55.802;37.404;2023-01-28T06:02:40;13.38;;;3.97;;
24619;SDS011;12763;55.802;37.404;2023-01-28T06:05:08;5.88;;;3.60;;
24619;SDS011;12763;55.802;37.404;2023-01-28T06:07:35;6.95;;;3.30;;
24619;SDS011;12763;55.802;37.404;2023-01-28T06:10:01;8.93;;;3.65;;
24619;SDS011;12763;55.802;37.404;2023-01-28T06:12:28;7.78;;;4.10;;
24619;SDS011;12763;55.802;37.404;2023-01-28T06:15:12;8.45;;;4.43;;
24619;SDS011;12763;55.802;37.404;2023-01-28T06:18:04;7.43;;;3.63;;
24619;SDS011;12763;55.802;37.404;2023-01-28T06:20:32;7.50;;;3.53;;
24619;SDS011;12763;55.802;37.404;2023-01-28T06:22:59;6.43;;;3.40;;
24619;SDS011;12763;55.802;37.404;2023-01-28T06:25:25;6.95;;;3.67;;
24619;SDS011;12763;55.802;37.404;2023-01-28T06:27:52;8.15;;;4.03;;
24619;SDS011;12763;55.802;37.404;2023-01-28T06:30:18;7.22;;;3.55;;
24619;SDS011;12763;55.802;37.404;2023-01-28T06:32:44;7.68;;;3.70;;
24619;SDS011;12763;55.802;37.404;2023-01-28T06:35:12;10.68;;;4.88;;
24619;SDS011;12763;55.802;37.404;2023-01-28T06:37:38;10.00;;;4.53;;
24619;SDS011;12763;55.802;37.404;2023-01-28T06:40:04;8.52;;;4.20;;
24619;SDS011;12763;55.802;37.404;2023-01-28T06:42:30;10.38;;;4.38;;
24619;SDS011;12763;55.802;37.404;2023-01-28T06:44:56;8.80;;;4.55;;
24619;SDS011;12763;55.802;37.404;2023-01-28T06:47:22;8.40;;;4.03;;
24619;SDS011;12763;55.802;37.404;2023-01-28T06:49:47;8.27;;;4.75;;
24619;SDS011;12763;55.802;37.404;2023-01-28T06:52:13;8.70;;;4.82;;
24619;SDS011;12763;55.802;37.404;2023-01-28T06:54:39;8.90;;;4.63;;
24619;SDS011;12763;55.802;37.404;2023-01-28T06:57:05;12.18;;;4.97;;
24619;SDS011;12763;55.802;37.404;2023-01-28T06:59:30;11.82;;;5.35;;
24619;SDS011;12763;55.802;37.404;2023-01-28T07:01:56;10.25;;;4.85;;
24619;SDS011;12763;55.802;37.404;2023-01-28T07:04:22;10.77;;;4.95;;
24619;SDS011;12763;55.802;37.404;2023-01-28T07:06:48;11.57;;;5.30;;
24619;SDS011;12763;55.802;37.404;2023-01-28T07:09:14;13.85;;;5.25;;
24619;SDS011;12763;55.802;37.404;2023-01-28T07:11:42;11.32;;;5.03;;
24619;SDS011;12763;55.802;37.404;2023-01-28T07:14:07;11.07;;;5.53;;
24619;SDS011;12763;55.802;37.404;2023-01-28T07:16:33;14.02;;;5.45;;
24619;SDS011;12763;55.802;37.404;2023-01-28T07:18:59;12.02;;;5.93;;
24619;SDS011;12763;55.802;37.404;2023-01-28T07:21:25;12.57;;;5.13;;
24619;SDS011;12763;55.802;37.404;2023-01-28T07:23:50;11.55;;;5.78;;
24619;SDS011;12763;55.802;37.404;2023-01-28T07:26:16;14.38;;;5.72;;
24619;SDS011;12763;55.802;37.404;2023-01-28T07:28:44;14.52;;;6.00;;
24619;SDS011;12763;55.802;37.404;2023-01-28T07:31:10;15.38;;;6.00;;
24619;SDS011;12763;55.802;37.404;2023-01-28T07:33:36;18.73;;;7.13;;
24619;SDS011;12763;55.802;37.404;2023-01-28T07:36:01;17.77;;;6.97;;
24619;SDS011;12763;55.802;37.404;2023-01-28T07:38:27;18.60;;;6.72;;
24619;SDS011;12763;55.802;37.404;2023-01-28T07:40:53;15.93;;;6.68;;
24619;SDS011;12763;55.802;37.404;2023-01-28T07:43:19;15.30;;;6.65;;
24619;SDS011;12763;55.802;37.404;2023-01-28T07:45:48;21.70;;;8.60;;
24619;SDS011;12763;55.802;37.404;2023-01-28T07:48:14;17.33;;;8.25;;
24619;SDS011;12763;55.802;37.404;2023-01-28T07:50:40;19.08;;;8.13;;
24619;SDS011;12763;55.802;37.404;2023-01-28T07:53:07;21.40;;;8.05;;
24619;SDS011;12763;55.802;37.404;2023-01-28T07:55:35;18.52;;;8.00;;
24619;SDS011;12763;55.802;37.404;2023-01-28T07:58:02;19.23;;;8.18;;
24619;SDS011;12763;55.802;37.404;2023-01-28T08:00:30;20.95;;;9.25;;
24619;SDS011;12763;55.802;37.404;2023-01-28T08:02:59;18.85;;;8.35;;
24619;SDS011;12763;55.802;37.404;2023-01-28T08:05:28;15.85;;;7.15;;
24619;SDS011;12763;55.802;37.404;2023-01-28T08:08:06;23.25;;;8.40;;
24619;SDS011;12763;55.802;37.404;2023-01-28T08:10:35;18.67;;;8.13;;
24619;SDS011;12763;55.802;37.404;2023-01-28T08:13:02;20.20;;;8.18;;
24619;SDS011;12763;55.802;37.404;2023-01-28T08:15:28;24.92;;;8.57;;
24619;SDS011;12763;55.802;37.404;2023-01-28T08:17:57;18.98;;;7.43;;
24619;SDS011;12763;55.802;37.404;2023-01-28T08:20:26;28.15;;;9.40;;
24619;SDS011;12763;55.802;37.404;2023-01-28T08:22:53;22.40;;;8.77;;
24619;SDS011;12763;55.802;37.404;2023-01-28T08:25:28;21.52;;;8.55;;
24619;SDS011;12763;55.802;37.404;2023-01-28T08:27:54;21.08;;;8.48;;
24619;SDS011;12763;55.802;37.404;2023-01-28T08:30:19;23.35;;;9.60;;
24619;SDS011;12763;55.802;37.404;2023-01-28T08:32:45;22.98;;;9.27;;
24619;SDS011;12763;55.802;37.404;2023-01-28T08:35:11;22.15;;;8.88;;
24619;SDS011;12763;55.802;37.404;2023-01-28T08:37:37;25.50;;;9.10;;
24619;SDS011;12763;55.802;37.404;2023-01-28T08:40:02;22.25;;;10.02;;
24619;SDS011;12763;55.802;37.404;2023-01-28T08:42:29;27.10;;;8.93;;
24619;SDS011;12763;55.802;37.404;2023-01-28T08:44:57;26.38;;;10.50;;
24619;SDS011;12763;55.802;37.404;2023-01-28T08:47:23;25.20;;;9.80;;
24619;SDS011;12763;55.802;37.404;2023-01-28T08:49:51;22.85;;;10.25;;
24619;SDS011;12763;55.802;37.404;2023-01-28T08:52:19;28.70;;;10.75;;
24619;SDS011;12763;55.802;37.404;2023-01-28T08:54:47;27.42;;;11.20;;
24619;SDS011;12763;55.802;37.404;2023-01-28T08:57:13;26.98;;;10.68;;
24619;SDS011;12763;55.802;37.404;2023-01-28T08:59:39;26.65;;;10.05;;
24619;SDS011;12763;55.802;37.404;2023-01-28T09:02:11;29.42;;;10.30;;
24619;SDS011;12763;55.802;37.404;2023-01-28T09:04:38;29.65;;;10.13;;
24619;SDS011;12763;55.802;37.404;2023-01-28T09:07:03;32.53;;;10.65;;
24619;SDS011;12763;55.802;37.404;2023-01-28T09:09:32;25.23;;;10.73;;
24619;SDS011;12763;55.802;37.404;2023-01-28T09:11:58;27.70;;;10.70;;
24619;SDS011;12763;55.802;37.404;2023-01-28T09:14:23;28.20;;;10.90;;
24619;SDS011;12763;55.802;37.404;2023-01-28T09:16:49;32.85;;;10.80;;
24619;SDS011;12763;55.802;37.404;2023-01-28T09:19:15;33.53;;;12.75;;
24619;SDS011;12763;55.802;37.404;2023-01-28T09:21:41;27.60;;;10.73;;
24619;SDS011;12763;55.802;37.404;2023-01-28T09:24:09;28.13;;;12.35;;
24619;SDS011;12763;55.802;37.404;2023-01-28T09:26:36;26.63;;;12.07;;
24619;SDS011;12763;55.802;37.404;2023-01-28T09:29:02;31.70;;;12.00;;
24619;SDS011;12763;55.802;37.404;2023-01-28T09:31:28;37.88;;;12.48;;
24619;SDS011;12763;55.802;37.404;2023-01-28T09:33:54;33.35;;;11.95;;
24619;SDS011;12763;55.802;37.404;2023-01-28T09:36:21;32.17;;;12.55;;
24619;SDS011;12763;55.802;37.404;2023-01-28T09:38:48;32.38;;;14.10;;
24619;SDS011;12763;55.802;37.404;2023-01-28T09:41:20;34.75;;;12.57;;
24619;SDS011;12763;55.802;37.404;2023-01-28T09:46:41;37.80;;;13.55;;
24619;SDS011;12763;55.802;37.404;2023-01-28T09:49:44;34.08;;;13.07;;
24619;SDS011;12763;55.802;37.404;2023-01-28T09:52:12;28.02;;;12.13;;
24619;SDS011;12763;55.802;37.404;2023-01-28T09:54:54;37.42;;;14.15;;
24619;SDS011;12763;55.802;37.404;2023-01-28T09:57:30;33.03;;;12.60;;
24619;SDS011;12763;55.802;37.404;2023-01-28T10:00:13;32.58;;;13.90;;
24619;SDS011;12763;55.802;37.404;2023-01-28T10:10:26;44.25;;;16.02;;
24619;SDS011;12763;55.802;37.404;2023-01-28T10:13:03;31.15;;;13.75;;
24619;SDS011;12763;55.802;37.404;2023-01-28T10:15:47;40.25;;;16.73;;
24619;SDS011;12763;55.802;37.404;2023-01-28T10:18:26;37.35;;;14.25;;
24619;SDS011;12763;55.802;37.404;2023-01-28T10:21:01;39.72;;;14.25;;
24619;SDS011;12763;55.802;37.404;2023-01-28T10:26:24;33.63;;;13.25;;
24619;SDS011;12763;55.802;37.404;2023-01-28T10:28:58;33.42;;;13.93;;
24619;SDS011;12763;55.802;37.404;2023-01-28T10:31:31;39.03;;;13.65;;
24619;SDS011;12763;55.802;37.404;2023-01-28T10:34:03;43.42;;;14.90;;
24619;SDS011;12763;55.802;37.404;2023-01-28T10:36:29;40.92;;;13.43;;
24619;SDS011;12763;55.802;37.404;2023-01-28T10:38:55;37.33;;;15.00;;
24619;SDS011;12763;55.802;37.404;2023-01-28T10:41:21;35.92;;;13.93;;
24619;SDS011;12763;55.802;37.404;2023-01-28T10:43:52;40.97;;;14.05;;
24619;SDS011;12763;55.802;37.404;2023-01-28T10:46:29;39.75;;;14.52;;
24619;SDS011;12763;55.802;37.404;2023-01-28T10:49:18;38.63;;;14.30;;
24619;SDS011;12763;55.802;37.404;2023-01-28T10:51:50;37.42;;;14.98;;
24619;SDS011;12763;55.802;37.404;2023-01-28T10:54:26;34.58;;;14.57;;
24619;SDS011;12763;55.802;37.404;2023-01-28T10:57:02;33.42;;;14.35;;
24619;SDS011;12763;55.802;37.404;2023-01-28T10:59:33;38.65;;;13.25;;
24619;SDS011;12763;55.802;37.404;2023-01-28T11:05:04;31.65;;;13.70;;
24619;SDS011;12763;55.802;37.404;2023-01-28T11:07:39;36.45;;;13.48;;
24619;SDS011;12763;55.802;37.404;2023-01-28T11:10:24;31.13;;;13.02;;
24619;SDS011;12763;55.802;37.404;2023-01-28T11:12:57;39.10;;;13.75;;
24619;SDS011;12763;55.802;37.404;2023-01-28T11:15:23;34.75;;;14.90;;
24619;SDS011;12763;55.802;37.404;2023-01-28T11:17:51;38.28;;;14.32;;
24619;SDS011;12763;55.802;37.404;2023-01-28T11:20:22;38.75;;;13.57;;
24619;SDS011;12763;55.802;37.404;2023-01-28T11:22:50;34.70;;;14.55;;
24619;SDS011;12763;55.802;37.404;2023-01-28T11:25:32;32.25;;;13.73;;
24619;SDS011;12763;55.802;37.404;2023-01-28T11:28:00;38.13;;;12.90;;
24619;SDS011;12763;55.802;37.404;2023-01-28T11:30:36;37.05;;;14.35;;
24619;SDS011;12763;55.802;37.404;2023-01-28T11:35:38;44.80;;;15.47;;
24619;SDS011;12763;55.802;37.404;2023-01-28T11:38:22;39.55;;;14.50;;
24619;SDS011;12763;55.802;37.404;2023-01-28T11:40:50;33.00;;;13.75;;
24619;SDS011;12763;55.802;37.404;2023-01-28T11:43:17;38.00;;;14.48;;
24619;SDS011;12763;55.802;37.404;2023-01-28T11:46:00;44.13;;;14.98;;
24619;SDS011;12763;55.802;37.404;2023-01-28T12:02:45;37.75;;;15.25;;
24619;SDS011;12763;55.802;37.404;2023-01-28T12:08:37;36.00;;;14.18;;
24619;SDS011;12763;55.802;37.404;2023-01-28T12:14:20;35.13;;;14.45;;
24619;SDS011;12763;55.802;37.404;2023-01-28T12:17:18;36.20;;;15.10;;
24619;SDS011;12763;55.802;37.404;2023-01-28T12:19:56;34.65;;;14.10;;
24619;SDS011;12763;55.802;37.404;2023-01-28T12:25:33;40.20;;;14.77;;
24619;SDS011;12763;55.802;37.404;2023-01-28T12:33:44;39.22;;;15.05;;
24619;SDS011;12763;55.802;37.404;2023-01-28T12:42:06;40.20;;;15.85;;
24619;SDS011;12763;55.802;37.404;2023-01-28T12:44:55;37.87;;;15.37;;
24619;SDS011;12763;55.802;37.404;2023-01-28T12:47:35;38.30;;;16.65;;
24619;SDS011;12763;55.802;37.404;2023-01-28T12:52:48;41.88;;;14.35;;
24619;SDS011;12763;55.802;37.404;2023-01-28T12:55:34;36.33;;;16.58;;
24619;SDS011;12763;55.802;37.404;2023-01-28T12:58:21;43.58;;;15.50;;
24619;SDS011;12763;55.802;37.404;2023-01-28T13:01:10;34.65;;;15.90;;
24619;SDS011;12763;55.802;37.404;2023-01-28T13:06:14;33.58;;;15.15;;
24619;SDS011;12763;55.802;37.404;2023-01-28T13:09:10;36.70;;;16.40;;
24619;SDS011;12763;55.802;37.404;2023-01-28T13:11:41;43.70;;;16.73;;
24619;SDS011;12763;55.802;37.404;2023-01-28T13:14:07;43.60;;;14.90;;
24619;SDS011;12763;55.802;37.404;2023-01-28T13:16:36;39.38;;;16.60;;
24619;SDS011;12763;55.802;37.404;2023-01-28T13:19:22;36.45;;;16.77;;
24619;SDS011;12763;55.802;37.404;2023-01-28T13:22:08;38.38;;;15.35;;
24619;SDS011;12763;55.802;37.404;2023-01-28T13:24:35;47.20;;;16.70;;
24619;SDS011;12763;55.802;37.404;2023-01-28T13:27:09;44.13;;;16.92;;
24619;SDS011;12763;55.802;37.404;2023-01-28T13:29:37;44.83;;;15.70;;
24619;SDS011;12763;55.802;37.404;2023-01-28T13:32:24;42.25;;;16.85;;
24619;SDS011;12763;55.802;37.404;2023-01-28T13:34:56;49.40;;;17.00;;
24619;SDS011;12763;55.802;37.404;2023-01-28T13:37:32;44.63;;;16.83;;
24619;SDS011;12763;55.802;37.404;2023-01-28T13:40:07;38.65;;;14.57;;
24619;SDS011;12763;55.802;37.404;2023-01-28T13:45:24;47.85;;;16.38;;
24619;SDS011;12763;55.802;37.404;2023-01-28T13:47:52;47.05;;;14.95;;
24619;SDS011;12763;55.802;37.404;2023-01-28T13:50:24;41.50;;;15.57;;
24619;SDS011;12763;55.802;37.404;2023-01-28T13:53:15;45.25;;;15.60;;
24619;SDS011;12763;55.802;37.404;2023-01-28T13:56:05;46.13;;;17.10;;
24619;SDS011;12763;55.802;37.404;2023-01-28T13:58:56;52.42;;;16.30;;
24619;SDS011;12763;55.802;37.404;2023-01-28T14:01:37;42.97;;;15.85;;
24619;SDS011;12763;55.802;37.404;2023-01-28T14:04:28;42.50;;;16.25;;
24619;SDS011;12763;55.802;37.404;2023-01-28T14:15:15;44.70;;;18.45;;
24619;SDS011;12763;55.802;37.404;2023-01-28T14:17:47;43.47;;;16.50;;
24619;SDS011;12763;55.802;37.404;2023-01-28T14:22:52;54.53;;;19.90;;
24619;SDS011;12763;55.802;37.404;2023-01-28T14:25:35;50.78;;;19.90;;
24619;SDS011;12763;55.802;37.404;2023-01-28T14:36:45;55.97;;;17.98;;
24619;SDS011;12763;55.802;37.404;2023-01-28T14:39:17;43.67;;;17.33;;
24619;SDS011;12763;55.802;37.404;2023-01-28T14:41:55;48.88;;;18.13;;
24619;SDS011;12763;55.802;37.404;2023-01-28T14:44:34;60.20;;;21.52;;
24619;SDS011;12763;55.802;37.404;2023-01-28T14:58:17;45.72;;;18.17;;
24619;SDS011;12763;55.802;37.404;2023-01-28T15:00:53;49.28;;;18.83;;
24619;SDS011;12763;55.802;37.404;2023-01-28T15:03:21;43.35;;;15.85;;
24619;SDS011;12763;55.802;37.404;2023-01-28T15:05:47;45.28;;;18.30;;
24619;SDS011;12763;55.802;37.404;2023-01-28T15:08:19;57.33;;;19.63;;
24619;SDS011;12763;55.802;37.404;2023-01-28T15:10:46;42.80;;;16.50;;
24619;SDS011;12763;55.802;37.404;2023-01-28T15:13:25;52.42;;;19.40;;
24619;SDS011;12763;55.802;37.404;2023-01-28T15:15:53;39.88;;;17.40;;
24619;SDS011;12763;55.802;37.404;2023-01-28T15:18:42;45.45;;;17.50;;
24619;SDS011;12763;55.802;37.404;2023-01-28T15:21:10;47.75;;;18.77;;
24619;SDS011;12763;55.802;37.404;2023-01-28T15:23:38;44.92;;;17.20;;
24619;SDS011;12763;55.802;37.404;2023-01-28T15:26:19;44.70;;;17.33;;
24619;SDS011;12763;55.802;37.404;2023-01-28T15:28:47;45.67;;;17.10;;
24619;SDS011;12763;55.802;37.404;2023-01-28T15:31:24;45.70;;;17.35;;
24619;SDS011;12763;55.802;37.404;2023-01-28T15:34:02;37.90;;;16.77;;
24619;SDS011;12763;55.802;37.404;2023-01-28T15:36:29;49.60;;;17.58;;
24619;SDS011;12763;55.802;37.404;2023-01-28T15:38:56;41.63;;;15.65;;
24619;SDS011;12763;55.802;37.404;2023-01-28T15:41:23;47.00;;;16.48;;
24619;SDS011;12763;55.802;37.404;2023-01-28T15:43:59;39.17;;;16.48;;
24619;SDS011;12763;55.802;37.404;2023-01-28T15:46:25;45.72;;;18.38;;
24619;SDS011;12763;55.802;37.404;2023-01-28T15:48:58;50.78;;;17.77;;
24619;SDS011;12763;55.802;37.404;2023-01-28T15:51:27;45.05;;;16.88;;
24619;SDS011;12763;55.802;37.404;2023-01-28T15:54:05;45.67;;;17.88;;
24619;SDS011;12763;55.802;37.404;2023-01-28T15:56:33;51.35;;;17.30;;
24619;SDS011;12763;55.802;37.404;2023-01-28T16:01:40;40.05;;;17.98;;
24619;SDS011;12763;55.802;37.404;2023-01-28T16:04:20;49.58;;;19.00;;
24619;SDS011;12763;55.802;37.404;2023-01-28T16:06:47;51.95;;;17.25;;
24619;SDS011;12763;55.802;37.404;2023-01-28T16:11:43;44.67;;;16.05;;
24619;SDS011;12763;55.802;37.404;2023-01-28T16:16:49;41.25;;;17.00;;
24619;SDS011;12763;55.802;37.404;2023-01-28T16:19:29;47.35;;;16.95;;
24619;SDS011;12763;55.802;37.404;2023-01-28T16:21:56;47.75;;;18.45;;
24619;SDS011;12763;55.802;37.404;2023-01-28T16:24:24;45.17;;;18.23;;
24619;SDS011;12763;55.802;37.404;2023-01-28T16:26:55;44.38;;;17.10;;
24619;SDS011;12763;55.802;37.404;2023-01-28T16:29:21;43.17;;;17.23;;
24619;SDS011;12763;55.802;37.404;2023-01-28T16:31:47;47.97;;;18.92;;
24619;SDS011;12763;55.802;37.404;2023-01-28T16:34:12;46.58;;;17.98;;
24619;SDS011;12763;55.802;37.404;2023-01-28T16:36:38;48.97;;;17.60;;
24619;SDS011;12763;55.802;37.404;2023-01-28T16:39:04;48.72;;;17.67;;
24619;SDS011;12763;55.802;37.404;2023-01-28T16:41:31;45.53;;;16.77;;
24619;SDS011;12763;55.802;37.404;2023-01-28T16:44:02;44.35;;;16.58;;
24619;SDS011;12763;55.802;37.404;2023-01-28T16:46:30;47.47;;;17.67;;
24619;SDS011;12763;55.802;37.404;2023-01-28T16:49:00;48.83;;;18.58;;
24619;SDS011;12763;55.802;37.404;2023-01-28T16:51:26;38.55;;;16.92;;
24619;SDS011;12763;55.802;37.404;2023-01-28T16:53:52;52.22;;;18.88;;
24619;SDS011;12763;55.802;37.404;2023-01-28T16:56:20;46.53;;;17.48;;
24619;SDS011;12763;55.802;37.404;2023-01-28T16:58:48;39.83;;;17.92;;